Akhisar Airport

LTBT · Manisa, Turcja

Historia METAR LTBT · Akhisar Airport

Poniżej widzisz METAR-y z ostatnich kilku dni. Wybierz rok, aby przeglądać starsze METAR-y, począwszy od roku 2007.

29 maja 2024

Czas Kod Pogoda Temp. Widoczność Sufit Wiatr METAR/SPECI
16:50
V
29 °C 10 km+ - Var Var 4 kt METAR LTBT 291350Z VRB04KT 9999 SCT035 29/07 Q1008 RMK RWY13 VRB02KT 3CU035
15:50
V
29 °C 10 km+ - 190° 190° 6 kt METAR LTBT 291250Z 19006KT 100V250 9999 SCT035 SCT200 29/07 Q1009 RMK RWY13 VRB02KT 3CU035 4CI200
13:50
V
28 °C 10 km+ - Var Var 4 kt METAR LTBT 291050Z VRB04KT 9999 SCT035 SCT100 28/07 Q1010 RMK RWY13 VRB04KT 3CU035 4AC100
12:50
V
27 °C 10 km+ - Var Var 4 kt METAR LTBT 290950Z VRB04KT 9999 FEW035 SCT100 27/07 Q1011 RMK RWY13 36004KT 300V030 2CU035 4AC100
11:50
V
26 °C 10 km+ - Var Var 3 kt METAR LTBT 290850Z VRB03KT 9999 FEW035 SCT180 26/09 Q1011 RMK RWY13 VRB03KT 2CU035 4CI180
10:50
V
24 °C 10 km+ - Var Var 4 kt METAR LTBT 290750Z VRB04KT 9999 FEW035 SCT180 24/09 Q1012 RMK RWY13 04003KT 360V110 2CU035 4CI180
09:50
V
23 °C 10 km+ - Var Var 2 kt METAR LTBT 290650Z VRB02KT 9999 FEW035 SCT180 23/10 Q1012 RMK RWY13 02002KT 1CU035 3CI180
08:50
V
19 °C 10 km+ - Var Var 2 kt METAR LTBT 290550Z VRB02KT CAVOK 19/10 Q1013 RMK RWY13 VRB03KT SKC
07:50
V
15 °C 10 km+ - Var Var 1 kt METAR LTBT 290450Z VRB01KT CAVOK 15/11 Q1013 RMK RWY13 00000KT SKC
06:50
V
12 °C 10 km+ - 360° 360° 0 kt METAR LTBT 290350Z 00000KT CAVOK 12/10 Q1013 RMK RWY13 00000KT SKC
06:37
V
11 °C 10 km+ - 360° 360° 0 kt METAR LTBT 290337Z 00000KT CAVOK 11/09 Q1013 RMK RWY13 00000KT SKC

28 maja 2024

Czas Kod Pogoda Temp. Widoczność Sufit Wiatr METAR/SPECI
19:50
V
23 °C 10 km+ - 020° 020° 7 kt METAR LTBT 281650Z 02007KT 9999 FEW040 23/07 Q1011 RMK RWY13 02005KT 2CU040
18:50
V
25 °C 10 km+ - 030° 030° 9 kt METAR LTBT 281550Z 03009KT 9999 FEW040 25/07 Q1010 RMK RWY13 02007KT 330V040 2CU040
17:50
V
26 °C 10 km+ - 020° 020° 11 kt METAR LTBT 281450Z 02011KT 340V040 9999 FEW040 26/07 Q1010 RMK RWY13 35008KT 310V020 2CU040
15:50
V
28 °C 10 km+ - 330° 330° 10 kt METAR LTBT 281250Z 33010KT 300V050 9999 FEW040 28/08 Q1011 RMK RWY13 33009KT 300V030 2CU040
14:50
V
27 °C 10 km+ - 340° 340° 8 kt METAR LTBT 281150Z 34008KT 290V060 9999 FEW040 27/07 Q1011 RMK RWY13 34007KT 310V030 1CU040
13:50
V
26 °C 10 km+ - 360° 360° 7 kt METAR LTBT 281050Z 36007KT 310V050 9999 FEW040 26/05 Q1012 RMK RWY13 35007KT 310V030 1CU040
12:50
V
26 °C 10 km+ - Var Var 6 kt METAR LTBT 280950Z VRB06KT 9999 FEW040 26/06 Q1012 RMK RWY13 33008KT 290V040 1CU040
11:50
V
24 °C 10 km+ - Var Var 4 kt METAR LTBT 280850Z VRB04KT 9999 FEW040 24/08 Q1012 RMK RWY13 VRB04KT 1CU040
10:50
V
22 °C 10 km+ - 360° 360° 6 kt METAR LTBT 280750Z 36006KT 310V050 CAVOK 22/07 Q1013 RMK RWY13 02004KT 1AC100
09:50
V
21 °C 10 km+ - Var Var 4 kt METAR LTBT 280650Z VRB04KT CAVOK 21/07 Q1013 RMK RWY13 02006KT 1AC100
08:50
V
19 °C 10 km+ - 040° 040° 8 kt METAR LTBT 280550Z 04008KT 360V120 CAVOK 19/09 Q1013 RMK RWY13 02009KT 350V050 2AC100
07:50
V
16 °C 10 km+ - 350° 350° 5 kt METAR LTBT 280450Z 35005KT 320V030 CAVOK 16/09 Q1013 RMK RWY13 02001KT 2AC100
06:50
V
12 °C 10 km+ - 310° 310° 4 kt METAR LTBT 280350Z 31004KT 280V010 CAVOK 12/09 Q1013 RMK RWY13 03003KT 2AC100
06:32
V
11 °C 10 km+ - 340° 340° 4 kt METAR LTBT 280332Z 34004KT 320V020 CAVOK 11/08 Q1013 RMK RWY13 02002KT 2AC100

27 maja 2024

Czas Kod Pogoda Temp. Widoczność Sufit Wiatr METAR/SPECI
16:50
V
26 °C 10 km+ - 010° 010° 17 kt METAR LTBT 271350Z 01017KT 9999 FEW040 26/06 Q1011 RMK RWY13 01014G29KT 330V050 2CU040
15:50
V
27 °C 10 km+ - 010° 010° 14 kt METAR LTBT 271250Z 01014KT 330V040 9999 FEW040 27/06 Q1011 RMK RWY13 01013KT 340V040 2CU040
14:50
V
27 °C 10 km+ - 360° 360° 13 - 23 kt METAR LTBT 271150Z 36013G23KT 320V040 9999 FEW040 27/07 Q1011 RMK RWY13 36012G22KT 2CU040
13:50
V
26 °C 10 km+ - 360° 360° 11 kt METAR LTBT 271050Z 36011KT 330V030 9999 FEW040 26/08 Q1012 RMK RWY13 36010KT 330V030 2CU040
12:50
V
26 °C 10 km+ - 020° 020° 13 kt METAR LTBT 270950Z 02013KT 9999 FEW040 SCT200 26/09 Q1012 RMK RWY13 01011G21KT 340V060 1CU040 3CI200
11:50
V
23 °C 10 km+ - 020° 020° 14 kt METAR LTBT 270850Z 02014KT 340V040 9999 FEW040 SCT200 23/10 Q1012 RMK RWY13 01014KT 350V060 1CU040 3CI200
10:50
V
21 °C 10 km+ - 010° 010° 14 kt METAR LTBT 270750Z 01014KT 340V040 9999 FEW040 SCT200 21/11 Q1013 RMK RWY13 01012KT 330V070 1CU040 3CI200
09:50
V
20 °C 10 km+ - 020° 020° 12 kt METAR LTBT 270650Z 02012KT CAVOK 20/12 Q1013 RMK RWY13 01008KT 2AC100
08:50
V
17 °C 10 km+ - 010° 010° 7 kt METAR LTBT 270550Z 01007KT 330V040 CAVOK 17/11 Q1013 RMK RWY13 02008KT 3AC100
Zgłoś zmianę